Time;durP1;ratioP1;P1;durP2;ratioP2;P2;SDS_P1;SDS_P2;PMS_P1;PMS_P2;Temp;Humidity;BMP_temperature;BMP_pressure;BME280_temperature;BME280_humidity;BME280_pressure;Samples;Min_cycle;Max_cycle;Signal;HPM_P1;HPM_P2
2022/09/09 00:01:57;;;;;;;4.93;1.30;;;;;;;16.51;86.95;100428.72;5105716;28;20040;-55
2022/09/09 00:04:28;;;;;;;6.00;1.33;;;;;;;16.57;86.97;100435.13;5109682;28;20440;-55
2022/09/09 00:07:35;;;;;;;6.63;1.38;;;;;;;16.49;86.45;100436.94;5103068;28;20486;-56
2022/09/09 00:10:11;;;;;;;3.78;1.20;;;;;;;16.49;86.55;100430.75;5108349;28;20406;-56
2022/09/09 00:12:55;;;;;;;6.75;1.50;;;;;;;16.47;85.97;100430.97;5107874;28;20473;-56
2022/09/09 00:15:27;;;;;;;3.63;1.30;;;;;;;16.42;86.24;100429.91;5107489;28;20043;-56
2022/09/09 00:18:03;;;;;;;4.35;1.20;;;;;;;16.32;85.04;100422.28;5103825;28;20054;-57
2022/09/09 00:20:57;;;;;;;4.63;1.30;;;;;;;16.32;85.12;100424.94;5106109;28;20040;-56
2022/09/09 00:23:28;;;;;;;5.95;1.50;;;;;;;16.33;86.69;100423.91;5080598;28;20089;-56
2022/09/09 00:26:22;;;;;;;5.13;1.20;;;;;;;16.33;87.32;100423.09;5105754;28;20048;-55
2022/09/09 00:28:58;;;;;;;5.70;1.58;;;;;;;16.33;88.11;100423.91;5097759;28;20122;-55
2022/09/09 00:31:29;;;;;;;5.40;1.38;;;;;;;16.28;87.51;100423.66;5109130;28;20509;-55
2022/09/09 00:34:04;;;;;;;7.55;1.67;;;;;;;16.40;87.85;100427.44;5095518;28;20047;-55
2022/09/09 00:36:34;;;;;;;6.25;1.40;;;;;;;16.40;88.81;100429.28;5092417;28;20044;-55
2022/09/09 00:39:02;;;;;;;4.88;1.25;;;;;;;16.48;88.13;100424.59;5096361;28;20051;-55
2022/09/09 00:42:10;;;;;;;3.75;1.35;;;;;;;16.48;87.00;100421.91;5090972;28;20436;-55
2022/09/09 00:44:39;;;;;;;6.03;1.63;;;;;;;16.55;87.93;100421.09;5095795;28;20036;-55
2022/09/09 00:47:18;;;;;;;5.72;1.30;;;;;;;16.50;88.08;100409.16;5093734;28;20044;-55
2022/09/09 00:50:10;;;;;;;6.35;1.48;;;;;;;16.54;88.62;100420.28;5095939;28;20478;-54
2022/09/09 00:52:47;;;;;;;5.13;1.40;;;;;;;16.55;88.19;100413.88;5094513;28;20078;-55
2022/09/09 00:55:41;;;;;;;3.25;1.40;;;;;;;16.46;88.94;100417.78;5088899;28;20520;-55
2022/09/09 00:58:09;;;;;;;7.28;1.50;;;;;;;16.59;88.16;100415.16;5087578;28;20058;-55
2022/09/09 01:00:44;;;;;;;6.43;1.60;;;;;;;16.55;88.15;100415.75;5095373;28;20040;-56
2022/09/09 01:03:34;;;;;;;6.22;1.67;;;;;;;16.52;88.76;100422.34;5096040;28;20093;-55
2022/09/09 01:06:29;;;;;;;5.00;1.58;;;;;;;16.59;88.57;100420.50;5092913;28;20048;-54
2022/09/09 01:09:36;;;;;;;9.23;1.60;;;;;;;16.50;89.02;100421.72;5095335;28;20044;-56
2022/09/09 01:12:15;;;;;;;5.28;1.65;;;;;;;16.46;89.51;100415.09;5089281;28;20516;-56
2022/09/09 01:15:00;;;;;;;6.28;1.65;;;;;;;16.53;89.06;100415.94;5095515;28;20055;-55
2022/09/09 01:17:34;;;;;;;8.05;1.88;;;;;;;16.52;89.23;100408.97;5091375;28;20044;-56
2022/09/09 01:20:20;;;;;;;7.13;1.90;;;;;;;16.52;89.23;100414.31;5093444;28;20060;-55
2022/09/09 01:23:20;;;;;;;5.35;1.63;;;;;;;16.49;89.25;100409.34;5095627;28;20040;-56
2022/09/09 01:26:11;;;;;;;5.03;1.80;;;;;;;16.44;89.39;100406.44;5088565;28;20051;-55
2022/09/09 01:28:38;;;;;;;8.15;1.90;;;;;;;16.39;88.01;100412.41;5080648;28;20036;-55
2022/09/09 01:31:15;;;;;;;7.60;1.65;;;;;;;16.30;87.73;100414.44;5092471;28;20172;-55
2022/09/09 01:33:45;;;;;;;7.95;2.40;;;;;;;16.55;85.22;100418.44;5089202;28;20097;-55
2022/09/09 01:36:21;;;;;;;6.93;1.95;;;;;;;16.47;84.93;100409.53;5090822;28;20068;-55
2022/09/09 01:38:51;;;;;;;7.13;1.95;;;;;;;16.58;84.90;100412.69;5092577;28;20047;-60
2022/09/09 01:41:19;;;;;;;4.93;1.65;;;;;;;16.56;83.18;100399.47;5093216;28;20047;-56
2022/09/09 01:43:55;;;;;;;4.13;1.40;;;;;;;16.48;85.22;100407.69;5091464;28;20048;-56
2022/09/09 01:46:23;;;;;;;6.65;1.60;;;;;;;16.49;85.35;100396.78;5094597;28;20391;-55
2022/09/09 01:48:53;;;;;;;6.65;1.55;;;;;;;16.41;83.33;100398.81;5090544;28;20060;-55
2022/09/09 01:51:20;;;;;;;5.60;1.30;;;;;;;16.46;84.46;100399.88;5083096;28;20043;-56
2022/09/09 01:53:47;;;;;;;6.88;1.55;;;;;;;16.46;85.72;100404.38;5094941;28;20086;-55
2022/09/09 01:56:44;;;;;;;7.47;1.80;;;;;;;16.55;83.50;100405.03;5079748;28;20136;-55
2022/09/09 01:59:25;;;;;;;8.98;1.90;;;;;;;16.46;85.16;100407.06;5090154;28;20048;-56
2022/09/09 02:02:09;;;;;;;9.93;1.90;;;;;;;16.47;85.50;100409.53;5089977;28;20048;-55
2022/09/09 02:04:45;;;;;;;8.73;1.80;;;;;;;16.58;85.71;100401.97;5092370;28;20135;-55
2022/09/09 02:07:39;;;;;;;9.15;2.00;;;;;;;16.58;85.75;100399.28;5091055;28;20573;-55
2022/09/09 02:10:19;;;;;;;8.38;1.70;;;;;;;16.64;85.73;100409.19;5091608;28;20126;-55
2022/09/09 02:13:03;;;;;;;6.90;2.10;;;;;;;16.66;85.96;100407.13;5091983;28;20074;-55
2022/09/09 02:15:40;;;;;;;13.85;3.45;;;;;;;16.70;85.98;100409.22;5091510;28;20508;-55
2022/09/09 02:18:10;;;;;;;9.82;3.17;;;;;;;16.78;84.54;100408.19;5092344;28;20054;-55
2022/09/09 02:20:38;;;;;;;12.80;2.83;;;;;;;16.75;85.13;100411.25;5092734;28;20081;-55
2022/09/09 02:23:08;;;;;;;9.82;2.78;;;;;;;16.87;86.16;100411.53;5078259;28;20127;-55
2022/09/09 02:25:37;;;;;;;9.57;2.60;;;;;;;16.79;84.39;100407.16;5073981;28;20498;-55
2022/09/09 02:28:18;;;;;;;9.48;2.67;;;;;;;16.76;84.19;100402.22;5079801;28;20052;-55
2022/09/09 02:30:46;;;;;;;13.43;2.40;;;;;;;16.89;83.88;100410.28;5094170;28;20051;-55
2022/09/09 02:33:15;;;;;;;9.70;2.78;;;;;;;16.86;84.63;100408.03;5086426;28;20111;-55
2022/09/09 02:35:50;;;;;;;12.65;3.10;;;;;;;16.87;84.82;100407.00;5072272;28;20401;-54
2022/09/09 02:38:24;;;;;;;11.63;3.15;;;;;;;16.83;84.23;100399.59;5073804;28;20169;-56
2022/09/09 02:40:58;;;;;;;11.98;3.20;;;;;;;16.90;82.17;100403.09;5093352;28;20048;-56
2022/09/09 02:43:26;;;;;;;17.30;3.10;;;;;;;16.94;82.61;100407.03;5090962;28;20101;-55
2022/09/09 02:46:04;;;;;;;11.68;3.10;;;;;;;16.97;81.98;100401.25;5093678;28;20043;-55
2022/09/09 02:48:45;;;;;;;11.68;3.20;;;;;;;16.91;81.90;100402.06;5091057;28;20048;-56
2022/09/09 02:51:23;;;;;;;14.93;3.42;;;;;;;16.94;82.42;100400.84;5091737;28;20173;-56
2022/09/09 02:56:33;;;;;;;10.73;2.95;;;;;;;16.99;80.97;100393.84;5112971;27;20178;-55
2022/09/09 02:59:04;;;;;;;17.30;3.20;;;;;;;17.00;80.04;100391.97;5090592;28;20055;-55
2022/09/09 03:01:33;;;;;;;12.85;3.70;;;;;;;16.91;79.75;100395.88;5073934;28;20493;-54
2022/09/09 03:03:59;;;;;;;9.95;3.00;;;;;;;17.01;79.54;100396.31;5090954;28;20058;-55
2022/09/09 03:06:27;;;;;;;12.52;3.38;;;;;;;16.99;80.87;100391.16;5071868;28;20052;-56
2022/09/09 03:09:02;;;;;;;11.82;2.90;;;;;;;17.00;80.65;100389.28;5077423;28;20041;-55
2022/09/09 03:11:29;;;;;;;12.30;3.08;;;;;;;17.00;80.90;100391.97;5094210;28;20052;-55
2022/09/09 03:13:57;;;;;;;8.55;2.63;;;;;;;16.85;79.64;100384.13;5090339;28;20052;-54
2022/09/09 03:16:25;;;;;;;12.90;2.80;;;;;;;16.91;80.50;100383.31;5089903;28;20048;-54
2022/09/09 03:18:53;;;;;;;11.40;3.03;;;;;;;16.94;80.25;100387.44;5090191;28;20045;-54
2022/09/09 03:21:21;;;;;;;10.05;2.97;;;;;;;16.98;80.39;100384.13;5102351;28;20095;-55
2022/09/09 03:23:48;;;;;;;7.85;2.67;;;;;;;17.00;79.41;100386.63;5097627;28;20123;-54
2022/09/09 03:26:15;;;;;;;9.30;3.00;;;;;;;16.96;79.30;100377.34;5090358;28;20071;-55
2022/09/09 03:28:44;;;;;;;13.32;3.10;;;;;;;17.07;77.44;100382.91;5090271;28;20044;-54
2022/09/09 03:31:14;;;;;;;13.65;2.88;;;;;;;16.93;77.84;100388.47;5090581;28;20044;-57
2022/09/09 03:33:42;;;;;;;14.05;2.83;;;;;;;16.95;79.78;100383.72;5090195;28;20422;-55
2022/09/09 03:36:12;;;;;;;12.07;3.25;;;;;;;16.92;79.11;100386.81;5072301;28;20047;-56
2022/09/09 03:38:39;;;;;;;12.80;2.80;;;;;;;16.99;78.81;100388.47;5090053;28;20094;-55
2022/09/09 03:41:07;;;;;;;10.88;2.30;;;;;;;17.01;79.17;100393.63;5092870;28;20045;-56
2022/09/09 03:43:34;;;;;;;11.75;2.80;;;;;;;16.96;79.43;100390.75;5090034;28;20045;-55
2022/09/09 03:46:01;;;;;;;7.43;2.30;;;;;;;16.89;78.52;100388.88;5089689;28;20135;-54
2022/09/09 03:48:29;;;;;;;8.88;2.50;;;;;;;16.96;80.21;100382.72;5108476;28;20047;-56
2022/09/09 03:50:57;;;;;;;12.10;3.03;;;;;;;16.99;78.41;100374.25;5102384;28;20047;-54
2022/09/09 03:53:24;;;;;;;12.70;2.75;;;;;;;16.98;78.76;100386.00;5089511;28;20070;-56
2022/09/09 03:55:54;;;;;;;15.02;3.08;;;;;;;16.92;78.04;100374.25;5085148;28;20139;-56
2022/09/09 03:58:24;;;;;;;12.95;3.60;;;;;;;16.92;79.66;100382.28;5071373;28;20095;-56
2022/09/09 04:00:54;;;;;;;14.65;3.58;;;;;;;17.03;79.30;100384.34;5069598;28;20577;-57
2022/09/09 04:03:22;;;;;;;19.25;3.55;;;;;;;16.98;79.62;100388.69;5068689;28;20407;-56
2022/09/09 04:05:52;;;;;;;14.48;3.90;;;;;;;16.97;79.62;100385.19;5067207;28;20055;-56
2022/09/09 04:08:21;;;;;;;13.15;3.85;;;;;;;16.92;78.57;100382.28;5037824;28;20146;-56
2022/09/09 04:10:49;;;;;;;14.63;3.83;;;;;;;17.00;78.91;100387.44;5060744;28;20044;-56
2022/09/09 04:13:18;;;;;;;16.67;3.85;;;;;;;16.97;79.56;100385.19;5075399;28;20060;-56
2022/09/09 04:15:52;;;;;;;13.85;3.40;;;;;;;16.89;79.21;100383.50;5058551;28;20041;-56
2022/09/09 04:18:19;;;;;;;11.48;3.20;;;;;;;17.05;79.13;100387.66;5055397;28;20399;-55
2022/09/09 04:20:48;;;;;;;12.45;3.45;;;;;;;17.00;80.17;100387.44;5037936;28;20049;-56
2022/09/09 04:23:16;;;;;;;15.15;3.22;;;;;;;17.01;79.00;100382.94;5042223;28;20036;-56
2022/09/09 04:25:46;;;;;;;12.15;3.50;;;;;;;17.01;80.60;100383.75;5060599;28;20075;-55
2022/09/09 04:28:15;;;;;;;14.52;3.75;;;;;;;16.97;79.26;100374.47;5037695;28;20049;-56
2022/09/09 04:30:42;;;;;;;13.63;3.83;;;;;;;17.02;80.12;100385.38;5060135;28;20090;-56
2022/09/09 04:33:10;;;;;;;14.45;3.97;;;;;;;17.04;80.13;100391.34;5063429;28;20095;-56
2022/09/09 04:35:38;;;;;;;16.10;3.60;;;;;;;16.98;78.67;100386.00;5047278;28;20068;-56
2022/09/09 04:38:07;;;;;;;14.80;3.42;;;;;;;17.07;79.06;100385.59;5060781;28;20076;-56
2022/09/09 04:40:34;;;;;;;13.02;3.25;;;;;;;17.03;77.95;100383.53;5059499;28;20071;-55
2022/09/09 04:43:04;;;;;;;17.95;3.30;;;;;;;17.06;78.29;100375.06;5065517;28;20119;-56
2022/09/09 04:45:32;;;;;;;23.63;3.20;;;;;;;16.94;78.41;100382.91;5058033;28;20037;-56
2022/09/09 04:47:59;;;;;;;14.90;2.72;;;;;;;17.03;78.44;100389.72;5054478;28;20064;-56
2022/09/09 04:50:26;;;;;;;11.50;2.72;;;;;;;16.97;78.49;100385.19;5054973;28;20049;-56
2022/09/09 04:53:01;;;;;;;12.77;2.92;;;;;;;17.04;77.64;100380.63;5050647;28;20502;-55
2022/09/09 04:55:28;;;;;;;11.00;2.88;;;;;;;17.06;78.53;100391.16;5062997;28;20049;-54
2022/09/09 04:57:56;;;;;;;10.82;2.65;;;;;;;16.94;78.70;100390.13;5061748;28;20139;-55
2022/09/09 05:00:24;;;;;;;12.85;2.60;;;;;;;17.13;78.48;100388.47;5054986;28;20399;-55
2022/09/09 05:02:51;;;;;;;12.80;2.53;;;;;;;17.14;78.09;100390.16;5055344;28;20040;-54
2022/09/09 05:05:18;;;;;;;11.10;2.38;;;;;;;17.13;77.69;100388.47;5054341;28;20444;-55
2022/09/09 05:07:48;;;;;;;14.40;2.42;;;;;;;17.06;78.29;100391.16;5036299;28;20119;-55
2022/09/09 05:10:16;;;;;;;14.13;2.53;;;;;;;17.09;78.78;100382.72;5054627;28;20111;-55
2022/09/09 05:12:52;;;;;;;11.38;2.78;;;;;;;17.12;79.05;100386.81;5054530;28;20040;-54
2022/09/09 05:15:20;;;;;;;11.95;2.28;;;;;;;17.17;78.98;100389.72;5039477;28;20061;-55
2022/09/09 05:17:47;;;;;;;12.00;2.75;;;;;;;17.18;77.27;100386.81;5053737;28;20049;-55
2022/09/09 05:20:14;;;;;;;16.23;2.70;;;;;;;17.17;77.93;100381.66;5053910;28;20502;-56
2022/09/09 05:22:43;;;;;;;10.55;2.70;;;;;;;17.03;77.45;100380.84;5054433;28;20148;-55
2022/09/09 05:25:10;;;;;;;12.27;2.55;;;;;;;17.00;78.63;100379.41;5054796;28;20045;-56
2022/09/09 05:27:39;;;;;;;11.07;2.55;;;;;;;17.09;78.95;100380.03;5054027;28;20043;-56
2022/09/09 05:30:06;;;;;;;16.73;3.25;;;;;;;16.97;79.39;100376.31;5035966;28;20542;-56
2022/09/09 05:32:33;;;;;;;14.73;3.08;;;;;;;17.05;79.58;100373.44;5054224;28;20398;-55
2022/09/09 05:35:01;;;;;;;13.25;3.10;;;;;;;17.07;79.42;100368.69;5053545;28;20053;-56
2022/09/09 05:37:30;;;;;;;15.50;3.05;;;;;;;17.15;78.66;100364.97;5053739;28;20033;-57
2022/09/09 05:39:57;;;;;;;14.73;2.72;;;;;;;17.26;78.85;100372.38;5053925;28;20123;-55
2022/09/09 05:42:30;;;;;;;11.82;2.95;;;;;;;17.27;77.60;100369.50;5053671;28;20072;-56
2022/09/09 05:44:57;;;;;;;10.85;3.08;;;;;;;17.36;77.40;100382.72;5053073;28;20546;-56
2022/09/09 05:47:27;;;;;;;13.52;3.03;;;;;;;17.35;76.74;100376.50;5053776;28;20099;-55
2022/09/09 05:49:55;;;;;;;12.18;2.72;;;;;;;17.34;78.31;100377.56;5052477;28;20454;-55
2022/09/09 05:52:23;;;;;;;14.60;2.85;;;;;;;17.38;77.48;100380.66;5053021;28;20491;-55
2022/09/09 05:54:50;;;;;;;14.32;2.60;;;;;;;17.36;76.87;100380.84;5056005;28;20570;-55
2022/09/09 05:57:17;;;;;;;19.15;3.20;;;;;;;17.43;78.08;100380.84;5040810;28;20049;-58
2022/09/09 05:59:43;;;;;;;14.98;2.97;;;;;;;17.53;77.80;100391.97;5063133;28;20075;-57
2022/09/09 06:02:12;;;;;;;13.90;3.10;;;;;;;17.53;77.70;100386.59;5036741;28;20063;-58
2022/09/09 06:04:39;;;;;;;15.50;2.80;;;;;;;17.64;78.06;100387.81;5052859;28;20041;-58
2022/09/09 06:07:07;;;;;;;17.42;3.05;;;;;;;17.59;77.10;100388.47;5052919;28;20110;-57
2022/09/09 06:09:34;;;;;;;16.15;2.70;;;;;;;17.62;77.44;100396.06;5053330;28;20086;-57
2022/09/09 06:12:01;;;;;;;15.75;3.35;;;;;;;17.72;77.08;100390.28;5054188;28;20055;-56
2022/09/09 06:14:32;;;;;;;14.88;3.10;;;;;;;17.66;76.29;100385.75;5053277;28;20049;-57
2022/09/09 06:16:59;;;;;;;15.00;3.10;;;;;;;17.77;74.77;100387.81;5052732;28;21779;-57
2022/09/09 06:19:30;;;;;;;18.40;3.00;;;;;;;17.77;75.89;100389.66;5059682;28;20052;-57
2022/09/09 06:21:58;;;;;;;14.88;2.63;;;;;;;17.70;74.24;100392.38;5053157;28;20483;-56
2022/09/09 06:24:26;;;;;;;10.10;2.55;;;;;;;17.53;74.23;100394.63;5063435;28;20053;-56
2022/09/09 06:26:53;;;;;;;11.98;2.33;;;;;;;17.60;74.03;100391.97;5073237;28;20063;-57
2022/09/09 06:29:25;;;;;;;14.55;2.50;;;;;;;17.63;73.97;100389.69;5073246;28;20470;-57
2022/09/09 06:31:52;;;;;;;15.75;2.53;;;;;;;17.50;74.71;100394.22;5056785;28;20482;-57
2022/09/09 06:34:21;;;;;;;14.63;2.40;;;;;;;17.65;75.16;100394.84;5056667;28;20490;-56
2022/09/09 06:36:53;;;;;;;19.90;2.70;;;;;;;17.62;74.93;100395.25;5045592;28;20056;-56
2022/09/09 06:39:20;;;;;;;17.08;2.53;;;;;;;17.38;75.11;100392.19;5073488;28;20098;-56
2022/09/09 06:41:48;;;;;;;9.80;2.22;;;;;;;17.46;74.79;100392.00;5057337;28;20053;-56
2022/09/09 06:44:34;;;;;;;10.15;2.25;;;;;;;17.44;75.92;100398.56;5052404;28;20124;-56
2022/09/09 06:47:03;;;;;;;14.25;2.40;;;;;;;17.39;75.00;100398.34;5034570;28;20033;-56
2022/09/09 06:49:32;;;;;;;11.55;2.47;;;;;;;17.40;75.26;100391.97;5053277;28;20636;-56
2022/09/09 06:52:01;;;;;;;11.30;2.08;;;;;;;17.39;75.72;100396.53;5052750;28;20053;-56
2022/09/09 06:54:28;;;;;;;8.68;2.25;;;;;;;17.46;74.78;100396.50;5052850;28;20048;-56
2022/09/09 06:56:55;;;;;;;15.98;2.55;;;;;;;17.49;74.36;100393.41;5071852;28;20132;-56
2022/09/09 06:59:22;;;;;;;16.90;3.03;;;;;;;17.54;74.13;100398.16;5060446;28;20045;-55
2022/09/09 07:01:54;;;;;;;16.10;2.60;;;;;;;17.41;73.48;100396.31;5035330;28;20144;-55
2022/09/09 07:04:22;;;;;;;9.27;2.35;;;;;;;17.25;73.58;100395.69;5053013;28;20080;-55
2022/09/09 07:06:48;;;;;;;9.80;2.38;;;;;;;17.54;72.26;100400.84;5037184;28;20115;-55
2022/09/09 07:09:20;;;;;;;12.90;2.60;;;;;;;17.60;72.27;100400.00;5059478;28;20045;-56
2022/09/09 07:11:52;;;;;;;13.05;1.90;;;;;;;17.68;71.30;100399.78;5055734;28;20542;-56
2022/09/09 07:14:21;;;;;;;11.20;2.33;;;;;;;17.70;71.15;100395.03;5053553;28;20064;-54
2022/09/09 07:16:53;;;;;;;11.40;2.30;;;;;;;17.79;69.97;100401.84;5029594;28;20056;-56
2022/09/09 07:19:23;;;;;;;13.85;2.53;;;;;;;17.89;69.45;100405.97;5056023;28;20089;-54
2022/09/09 07:21:52;;;;;;;9.10;1.75;;;;;;;17.77;70.42;100403.06;5051037;28;20045;-55
2022/09/09 07:24:21;;;;;;;14.70;2.05;;;;;;;17.79;68.84;100417.09;5052221;28;20419;-54
2022/09/09 07:26:48;;;;;;;14.23;2.00;;;;;;;17.74;69.83;100415.03;5052906;28;20497;-53
2022/09/09 07:29:15;;;;;;;11.60;2.13;;;;;;;17.81;69.70;100423.09;5039635;28;20037;-54
2022/09/09 07:31:45;;;;;;;18.10;2.88;;;;;;;17.81;70.08;100420.41;5046064;28;20065;-55
2022/09/09 07:34:16;;;;;;;10.77;2.15;;;;;;;17.76;69.61;100415.66;5053507;28;20520;-55
2022/09/09 07:36:43;;;;;;;8.75;2.05;;;;;;;17.89;69.53;100419.38;5051529;28;20048;-56
2022/09/09 07:39:13;;;;;;;13.10;2.55;;;;;;;17.98;70.75;100416.25;5053289;28;20411;-55
2022/09/09 07:41:46;;;;;;;9.60;2.28;;;;;;;18.18;69.88;100424.25;5037497;28;20048;-56
2022/09/09 07:44:21;;;;;;;15.18;4.00;;;;;;;18.26;65.99;100425.03;5068226;28;20082;-56
2022/09/09 07:46:50;;;;;;;13.73;3.80;;;;;;;18.29;66.17;100435.38;5060072;28;20116;-56
2022/09/09 07:49:22;;;;;;;;;;;;;;;18.29;65.09;100433.50;5049833;28;20052;-56
2022/09/09 07:51:53;;;;;;;11.15;2.30;;;;;;;18.22;65.73;100430.84;5058598;28;19925;-56
2022/09/09 07:54:23;;;;;;;11.98;2.78;;;;;;;18.31;66.24;100433.28;5065257;28;20565;-56
2022/09/09 07:56:52;;;;;;;12.43;3.47;;;;;;;18.40;65.27;100442.75;5063341;28;20056;-56
2022/09/09 07:59:21;;;;;;;11.68;2.40;;;;;;;18.35;64.88;100434.50;5067584;28;20048;-56
2022/09/09 08:01:54;;;;;;;10.73;2.28;;;;;;;18.27;63.69;100434.75;5071589;28;20446;-55
2022/09/09 08:04:25;;;;;;;12.95;1.90;;;;;;;18.36;64.20;100436.16;5051791;28;20117;-56
2022/09/09 08:06:55;;;;;;;11.18;1.90;;;;;;;18.30;62.92;100432.47;5055345;28;20052;-56
2022/09/09 08:09:26;;;;;;;16.10;2.88;;;;;;;18.27;63.13;100440.13;5054350;28;20037;-56
2022/09/09 08:11:56;;;;;;;10.05;1.88;;;;;;;18.30;62.25;100437.00;5058254;28;20086;-57
2022/09/09 08:14:24;;;;;;;13.73;2.53;;;;;;;18.37;62.73;100435.13;5060072;28;20101;-56
2022/09/09 08:16:52;;;;;;;9.88;2.08;;;;;;;18.42;62.18;100435.31;5057441;28;20041;-56
2022/09/09 08:19:23;;;;;;;11.10;2.20;;;;;;;18.55;62.59;100435.25;5055393;28;20055;-56
2022/09/09 08:21:51;;;;;;;10.85;2.40;;;;;;;18.66;62.03;100436.44;5053097;28;20056;-56
2022/09/09 08:24:19;;;;;;;11.80;2.42;;;;;;;18.72;62.48;100438.28;5056830;28;20148;-56
2022/09/09 08:26:49;;;;;;;9.57;1.90;;;;;;;18.77;62.43;100435.78;5065178;28;20040;-57
2022/09/09 08:29:19;;;;;;;11.50;2.10;;;;;;;18.94;60.34;100436.09;5074503;28;20123;-56
2022/09/09 08:31:49;;;;;;;13.95;2.20;;;;;;;18.93;60.49;100439.00;5053998;28;20510;-56
2022/09/09 08:34:19;;;;;;;13.57;2.40;;;;;;;18.94;60.48;100437.97;5054587;28;20059;-56
2022/09/09 08:36:49;;;;;;;17.20;2.47;;;;;;;19.01;60.83;100427.16;5058187;28;20052;-57
2022/09/09 08:39:19;;;;;;;10.10;1.85;;;;;;;19.22;59.09;100442.13;5050451;28;20114;-57
2022/09/09 08:42:17;;;;;;;10.13;2.17;;;;;;;19.23;59.24;100441.06;5053877;28;20114;-57
2022/09/09 08:47:46;;;;;;;15.40;3.50;;;;;;;19.41;59.29;100441.16;5104514;27;20402;-57
2022/09/09 08:50:26;;;;;;;15.60;2.67;;;;;;;19.15;59.37;100437.59;5089895;28;20045;-57
2022/09/09 08:53:10;;;;;;;11.75;2.63;;;;;;;19.21;59.61;100440.47;5085592;28;20036;-56
2022/09/09 08:55:59;;;;;;;13.50;2.60;;;;;;;19.29;59.71;100442.91;5100680;28;20050;-56
2022/09/09 08:58:34;;;;;;;10.40;2.20;;;;;;;19.23;59.68;100444.59;5106893;28;20048;-56
2022/09/09 09:01:44;;;;;;;9.77;2.13;;;;;;;19.29;57.75;100442.91;5099701;28;20028;-56
2022/09/09 09:04:55;;;;;;;9.73;1.90;;;;;;;19.28;58.35;100442.06;5091321;28;20044;-55
2022/09/09 09:08:02;;;;;;;21.40;2.42;;;;;;;19.08;58.19;100442.22;5103359;28;20059;-56
2022/09/09 09:10:44;;;;;;;8.77;2.00;;;;;;;19.04;57.76;100454.44;5086146;28;20044;-56
2022/09/09 09:13:40;;;;;;;12.25;2.03;;;;;;;18.95;58.66;100451.16;5085067;28;20132;-57
2022/09/09 09:16:33;;;;;;;21.33;7.35;;;;;;;18.99;58.44;100446.19;5088430;28;20040;-57
2022/09/09 09:19:01;;;;;;;12.02;3.40;;;;;;;19.09;57.99;100449.22;5090253;28;20052;-56
2022/09/09 09:24:52;;;;;;;12.32;3.08;;;;;;;19.08;58.44;100458.34;5101412;27;20361;-55
2022/09/09 09:27:36;;;;;;;13.25;2.30;;;;;;;19.19;58.30;100459.50;5088145;28;20040;-56
2022/09/09 09:30:26;;;;;;;12.50;2.65;;;;;;;19.34;57.86;100453.81;5089178;28;20107;-55
2022/09/09 09:33:05;;;;;;;7.67;2.10;;;;;;;19.31;56.94;100459.63;5087680;28;20039;-56
2022/09/09 09:35:32;;;;;;;7.05;1.60;;;;;;;19.76;54.77;100454.09;5070841;28;20049;-56
2022/09/09 09:38:15;;;;;;;12.35;1.75;;;;;;;20.28;53.10;100446.53;5074311;28;20134;-58
2022/09/09 09:41:03;;;;;;;10.85;2.15;;;;;;;20.40;53.29;100445.75;5077203;28;20048;-57
2022/09/09 09:43:33;;;;;;;9.05;1.90;;;;;;;22.62;47.29;100446.22;5065706;28;20084;-57
2022/09/09 09:46:04;;;;;;;9.60;1.65;;;;;;;23.03;44.69;100456.16;5079756;28;20055;-57
2022/09/09 09:48:42;;;;;;;9.55;1.75;;;;;;;21.93;47.41;100448.03;5073751;28;20053;-57
2022/09/09 09:51:15;;;;;;;9.55;2.00;;;;;;;21.16;49.36;100460.50;5073187;28;20048;-57
2022/09/09 09:53:43;;;;;;;8.98;1.63;;;;;;;21.21;50.13;100455.22;5083021;28;20629;-57
2022/09/09 09:56:14;;;;;;;10.68;1.70;;;;;;;21.03;50.49;100452.63;5068497;28;20041;-61
2022/09/09 09:58:50;;;;;;;13.35;1.80;;;;;;;20.93;50.78;100446.94;5042288;28;20052;-57
2022/09/09 10:01:27;;;;;;;9.75;1.65;;;;;;;20.63;51.17;100450.44;5071402;28;20044;-57
2022/09/09 10:04:03;;;;;;;10.95;2.15;;;;;;;20.56;51.54;100439.75;5080110;28;20751;-57
2022/09/09 10:06:33;;;;;;;7.00;1.50;;;;;;;20.73;51.51;100439.13;5076956;28;20036;-57
2022/09/09 10:09:01;;;;;;;13.32;3.17;;;;;;;20.98;50.59;100439.00;5082740;28;21631;-57
2022/09/09 10:11:49;;;;;;;10.35;2.03;;;;;;;20.85;51.61;100442.72;5086220;28;20059;-57
2022/09/09 10:14:22;;;;;;;10.98;2.45;;;;;;;20.83;51.60;100432.16;5074396;28;20033;-57
2022/09/09 10:17:06;;;;;;;10.85;2.47;;;;;;;20.60;50.68;100434.72;5069938;28;20123;-58
2022/09/09 10:19:35;;;;;;;7.40;1.90;;;;;;;20.55;51.71;100426.50;5079623;28;20615;-56
2022/09/09 10:27:58;;;;;;;11.88;1.92;;;;;;;20.34;52.43;100436.72;5096390;27;20389;-57
2022/09/09 10:30:58;;;;;;;12.02;2.08;;;;;;;19.99;52.69;100439.16;5083399;28;20046;-57
2022/09/09 10:36:26;;;;;;;7.70;1.70;;;;;;;20.03;52.95;100432.28;5058550;28;20732;-56
2022/09/09 10:39:27;;;;;;;7.47;1.50;;;;;;;20.02;53.24;100428.78;5057385;28;20087;-56
2022/09/09 10:42:07;;;;;;;16.33;1.83;;;;;;;20.13;53.42;100422.63;5052892;28;20038;-56
2022/09/09 10:47:28;;;;;;;8.95;1.70;;;;;;;20.05;53.56;100427.53;5093152;27;21000;-54
2022/09/09 10:50:26;;;;;;;9.52;1.70;;;;;;;20.01;53.58;100426.31;5103904;28;20097;-55
2022/09/09 10:53:13;;;;;;;13.35;2.15;;;;;;;20.37;53.41;100420.06;5088949;28;20128;-55
2022/09/09 10:55:45;;;;;;;8.48;1.83;;;;;;;20.40;52.86;100422.31;5086973;28;20181;-55
2022/09/09 10:58:19;;;;;;;8.30;1.52;;;;;;;20.38;52.88;100420.91;5103202;28;20058;-55
2022/09/09 11:00:51;;;;;;;11.32;1.80;;;;;;;20.53;53.00;100416.75;5109108;28;20071;-56
2022/09/09 11:03:25;;;;;;;7.65;1.42;;;;;;;20.66;51.38;100414.97;5110485;27;20406;-56
2022/09/09 11:05:57;;;;;;;5.72;1.42;;;;;;;20.37;52.17;100413.88;5122317;28;20128;-55
2022/09/09 11:08:28;;;;;;;10.80;1.75;;;;;;;20.21;52.98;100418.84;5108194;28;20043;-55
2022/09/09 11:11:03;;;;;;;12.27;1.60;;;;;;;19.86;54.15;100415.91;5100037;28;20071;-55
2022/09/09 11:13:54;;;;;;;8.20;1.50;;;;;;;19.70;56.59;100419.97;5107481;28;20485;-55
2022/09/09 11:16:34;;;;;;;8.20;2.53;;;;;;;19.67;58.71;100421.25;5108651;27;20044;-55
2022/09/09 11:19:11;;;;;;;8.65;1.70;;;;;;;19.48;57.90;100430.31;5078714;28;20055;-56
2022/09/09 11:21:49;;;;;;;11.57;1.98;;;;;;;19.46;57.74;100430.53;5115423;28;20048;-56
2022/09/09 11:24:26;;;;;;;7.07;1.40;;;;;;;19.56;58.79;100433.56;5108738;28;20444;-55
2022/09/09 11:27:02;;;;;;;6.00;1.40;;;;;;;19.24;59.94;100432.78;5095697;28;20476;-55
2022/09/09 11:32:44;;;;;;;6.30;1.48;;;;;;;19.59;59.92;100432.28;5113467;27;20841;-54
2022/09/09 11:35:38;;;;;;;10.13;1.60;;;;;;;20.07;60.50;100425.44;5099372;27;20039;-56
2022/09/09 11:38:19;;;;;;;6.13;1.33;;;;;;;20.09;56.16;100413.38;5123027;28;20047;-55
2022/09/09 11:40:47;;;;;;;6.63;1.63;;;;;;;20.15;56.54;100417.03;5116281;28;20465;-54
2022/09/09 11:43:22;;;;;;;6.80;1.50;;;;;;;20.03;56.13;100419.66;5101851;27;20101;-55
2022/09/09 11:45:55;;;;;;;10.85;2.38;;;;;;;20.01;55.75;100421.75;5118123;28;20070;-49
2022/09/09 11:48:28;;;;;;;8.77;1.60;;;;;;;19.92;57.73;100423.09;5122638;27;20514;-49
2022/09/09 11:51:28;;;;;;;6.57;1.85;;;;;;;19.79;57.28;100426.72;5083708;28;20036;-48
2022/09/09 11:54:01;;;;;;;10.60;2.22;;;;;;;19.83;57.16;100417.19;5098537;28;20044;-56
2022/09/09 11:56:33;;;;;;;11.32;2.00;;;;;;;19.80;58.35;100423.00;5105076;28;20439;-56
2022/09/09 11:59:06;;;;;;;9.77;1.80;;;;;;;19.78;55.95;100430.50;5125922;28;20050;-55
2022/09/09 12:04:14;;;;;;;8.60;1.80;;;;;;;19.78;57.12;100426.97;5102946;27;20047;-54
2022/09/09 12:06:49;;;;;;;8.05;2.10;;;;;;;20.17;56.45;100431.09;5089946;28;20043;-55
2022/09/09 12:09:23;;;;;;;10.80;2.28;;;;;;;20.46;55.20;100431.38;5092447;28;20382;-55
2022/09/09 12:11:51;;;;;;;9.52;1.75;;;;;;;21.33;53.90;100428.25;5101271;28;20393;-55
2022/09/09 12:14:21;;;;;;;10.15;1.80;;;;;;;21.85;51.10;100428.44;5112597;28;20074;-54
2022/09/09 12:16:48;;;;;;;9.07;1.90;;;;;;;21.71;50.97;100426.22;5101524;28;20041;-54